Time;durP1;ratioP1;P1;durP2;ratioP2;P2;SDS_P1;SDS_P2;PMS_P1;PMS_P2;Temp;Humidity;BMP_temperature;BMP_pressure;BME280_temperature;BME280_humidity;BME280_pressure;Samples;Min_cycle;Max_cycle;Signal;HPM_P1;HPM_P2
2022/02/03 00:00:42;;;;;;;3.57;3.27;;;7.90;99.90;;;;;;5011505;28;20559;-71
2022/02/03 00:03:19;;;;;;;2.40;2.20;;;7.90;99.90;;;;;;5000635;28;20516;-71
2022/02/03 00:05:52;;;;;;;3.13;2.70;;;7.90;99.90;;;;;;5014575;28;20482;-71
2022/02/03 00:16:40;;;;;;;;;;;;;;;;;;;;;
2022/02/03 00:24:25;;;;;;;4.30;3.33;;;8.00;99.90;;;;;;5025522;28;20830;-71
2022/02/03 00:27:02;;;;;;;4.27;2.50;;;8.00;99.90;;;;;;5030387;28;20455;-69
2022/02/03 00:29:50;;;;;;;3.77;2.50;;;8.00;99.90;;;;;;5014099;28;20483;-71
2022/02/03 00:51:18;;;;;;;3.83;2.60;;;8.10;99.90;;;;;;5033025;28;20928;-70
2022/02/03 00:53:44;;;;;;;4.30;2.73;;;8.00;99.90;;;;;;5032978;28;20948;-72
2022/02/03 00:56:20;;;;;;;3.83;2.70;;;8.10;99.90;;;;;;5032321;28;20454;-72
2022/02/03 00:59:02;;;;;;;4.20;2.70;;;8.10;99.90;;;;;;5031328;28;20224;-72
2022/02/03 01:01:31;;;;;;;2.77;2.23;;;8.10;99.90;;;;;;5007122;28;20448;-72
2022/02/03 01:04:02;;;;;;;3.67;2.60;;;8.10;99.90;;;;;;5013017;28;20448;-71
2022/02/03 01:06:31;;;;;;;6.37;4.10;;;8.10;99.90;;;;;;5032701;28;20477;-71
2022/02/03 01:08:58;;;;;;;7.43;3.97;;;8.10;99.90;;;;;;5015463;28;20466;-70
2022/02/03 01:11:36;;;;;;;5.23;3.97;;;8.10;99.90;;;;;;5031560;28;20455;-72
2022/02/03 01:14:14;;;;;;;;;;;;;;;;;;;;;
2022/02/03 01:16:55;;;;;;;6.93;4.40;;;8.10;99.90;;;;;;5015105;28;20964;-71
2022/02/03 01:43:55;;;;;;;7.30;3.80;;;8.20;99.90;;;;;;5030412;28;21079;-70
2022/02/03 01:46:50;;;;;;;6.23;4.23;;;8.20;99.90;;;;;;5033590;28;20457;-72
2022/02/03 01:49:17;;;;;;;4.70;3.63;;;8.20;99.90;;;;;;5018329;28;20478;-71
2022/02/03 01:52:09;;;;;;;4.93;3.37;;;8.20;99.90;;;;;;4980681;28;20459;-71
2022/02/03 01:54:37;;;;;;;5.83;4.20;;;8.20;99.90;;;;;;5031379;28;20525;-71
2022/02/03 01:57:12;;;;;;;6.23;4.33;;;8.20;99.90;;;;;;5022499;28;20461;-71
2022/02/03 01:59:40;;;;;;;6.00;4.17;;;8.20;99.90;;;;;;5013862;28;20485;-71
2022/02/03 02:02:07;;;;;;;4.07;3.50;;;8.20;99.90;;;;;;5003187;28;20494;-70
2022/02/03 02:04:59;;;;;;;5.40;3.77;;;8.20;99.90;;;;;;5013235;28;20459;-69
2022/02/03 02:07:34;;;;;;;5.27;3.40;;;8.20;99.90;;;;;;5025937;28;20988;-71
2022/02/03 02:12:53;;;;;;;4.70;3.37;;;8.20;99.90;;;;;;5013068;28;20469;-69
2022/02/03 02:16:00;;;;;;;4.87;3.40;;;8.20;99.90;;;;;;5006624;28;20456;-69
2022/02/03 02:18:34;;;;;;;4.97;3.50;;;8.20;99.90;;;;;;5015722;28;20425;-70
2022/02/03 02:38:06;;;;;;;5.37;3.20;;;8.30;99.90;;;;;;5020390;28;20451;-71
2022/02/03 02:43:16;;;;;;;3.80;2.73;;;8.30;99.90;;;;;;5030833;28;20455;-71
2022/02/03 02:45:56;;;;;;;4.40;3.07;;;8.30;99.90;;;;;;5033356;28;20816;-70
2022/02/03 02:48:49;;;;;;;2.70;2.40;;;8.30;99.90;;;;;;5018404;28;20491;-70
2022/02/03 02:51:25;;;;;;;4.90;3.37;;;8.30;99.90;;;;;;5038004;28;20872;-69
2022/02/03 02:57:12;;;;;;;;;;;;;;;;;;;;;
2022/02/03 03:30:15;;;;;;;4.33;3.53;;;8.30;99.90;;;;;;5030400;28;20463;-69
2022/02/03 03:33:16;;;;;;;5.83;3.47;;;8.30;99.90;;;;;;5012110;28;20476;-69
2022/02/03 03:38:21;;;;;;;5.70;4.57;;;8.30;99.90;;;;;;5009714;28;20462;-69
2022/02/03 03:40:50;;;;;;;8.23;4.37;;;8.30;99.90;;;;;;5031495;28;20447;-70
2022/02/03 03:43:43;;;;;;;6.23;4.30;;;8.30;99.90;;;;;;5028920;28;20456;-70
2022/02/03 03:46:11;;;;;;;4.40;3.23;;;8.30;99.90;;;;;;5025247;28;20964;-70
2022/02/03 03:48:57;;;;;;;8.07;4.90;;;8.30;99.90;;;;;;4993271;28;21005;-69
2022/02/03 03:51:41;;;;;;;6.90;4.77;;;8.30;99.90;;;;;;5023375;28;20455;-69
2022/02/03 03:54:13;;;;;;;5.50;4.00;;;8.30;99.90;;;;;;4984374;28;20455;-70
2022/02/03 03:57:29;;;;;;;5.37;3.80;;;8.30;99.90;;;;;;5029604;28;20455;-70
2022/02/03 04:30:09;;;;;;;12.27;5.20;;;8.20;99.90;;;;;;5015844;28;20835;-70
2022/02/03 04:44:24;;;;;;;7.10;4.47;;;8.20;99.90;;;;;;5006215;28;20489;-69
2022/02/03 04:56:51;;;;;;;7.20;4.57;;;8.20;99.90;;;;;;5026243;28;20471;-69
2022/02/03 05:00:03;;;;;;;6.10;3.60;;;8.20;99.90;;;;;;5020661;28;20503;-69
2022/02/03 05:05:06;;;;;;;4.67;3.63;;;8.20;99.90;;;;;;5008572;28;20462;-69
2022/02/03 05:10:55;;;;;;;3.73;3.40;;;8.30;99.90;;;;;;5026077;28;20558;-69
2022/02/03 06:03:34;;;;;;;4.23;2.63;;;8.20;99.90;;;;;;5002777;28;40754;-71
2022/02/03 06:09:21;;;;;;;8.53;2.53;;;8.20;99.90;;;;;;4983395;28;20477;-70
2022/02/03 06:12:08;;;;;;;2.10;1.90;;;8.30;99.90;;;;;;4991286;28;20456;-69
2022/02/03 06:27:49;;;;;;;1.80;1.47;;;8.30;99.90;;;;;;4977263;28;20536;-71
2022/02/03 06:30:20;;;;;;;1.50;1.40;;;8.30;99.90;;;;;;4988895;28;20526;-70
2022/02/03 06:32:46;;;;;;;3.03;1.90;;;8.30;99.90;;;;;;4991183;28;20451;-68
2022/02/03 06:35:13;;;;;;;2.10;1.90;;;8.30;99.90;;;;;;4999214;28;20460;-70
2022/02/03 06:37:39;;;;;;;2.83;1.93;;;8.30;99.90;;;;;;4993227;28;20525;-71
2022/02/03 06:40:08;;;;;;;2.37;1.70;;;8.30;99.90;;;;;;4986213;28;20574;-69
2022/02/03 06:42:34;;;;;;;2.10;1.50;;;8.30;99.90;;;;;;4974811;28;20523;-69
2022/02/03 06:45:12;;;;;;;2.03;1.77;;;8.30;99.90;;;;;;4994128;28;20520;-71
2022/02/03 06:48:00;;;;;;;2.37;2.10;;;8.30;99.90;;;;;;4997228;28;20218;-71
2022/02/03 06:50:43;;;;;;;2.60;2.07;;;8.30;99.90;;;;;;4989535;28;20464;-71
2022/02/03 06:53:14;;;;;;;4.80;3.00;;;8.30;99.90;;;;;;4981234;28;20834;-72
2022/02/03 06:58:57;;;;;;;3.63;2.90;;;8.40;99.90;;;;;;4994567;28;20457;-73
2022/02/03 07:03:36;;;;;;;4.93;2.57;;;8.30;99.90;;;;;;4993570;28;20543;-71
2022/02/03 07:06:02;;;;;;;2.30;2.10;;;8.30;99.90;;;;;;4999268;28;20918;-72
2022/02/03 07:08:30;;;;;;;3.57;1.80;;;8.30;99.90;;;;;;4988398;28;20519;-72
2022/02/03 07:10:56;;;;;;;1.47;1.13;;;8.30;99.90;;;;;;4990159;28;20268;-71
2022/02/03 07:13:23;;;;;;;1.93;1.60;;;8.30;99.90;;;;;;4989412;28;20472;-72
2022/02/03 07:15:49;;;;;;;2.10;1.83;;;8.30;99.90;;;;;;4992842;28;20507;-71
2022/02/03 07:18:14;;;;;;;1.73;1.60;;;8.30;99.90;;;;;;4989975;28;20445;-73
2022/02/03 07:20:41;;;;;;;1.70;1.60;;;8.30;99.90;;;;;;4975151;28;20230;-72
2022/02/03 07:23:07;;;;;;;2.70;1.97;;;8.20;99.90;;;;;;4989771;28;20645;-72
2022/02/03 07:25:32;;;;;;;2.00;1.80;;;8.20;99.90;;;;;;4977726;28;20452;-71
2022/02/03 07:28:01;;;;;;;1.73;1.63;;;8.20;99.90;;;;;;5007175;28;20299;-69
2022/02/03 07:30:27;;;;;;;3.73;3.03;;;8.30;99.90;;;;;;4992997;28;20532;-72
2022/02/03 07:32:56;;;;;;;3.70;2.80;;;8.30;99.90;;;;;;4975589;28;20454;-72
2022/02/03 07:35:22;;;;;;;3.37;2.53;;;8.30;99.90;;;;;;4965602;28;21003;-73
2022/02/03 07:37:50;;;;;;;4.20;2.67;;;8.30;99.90;;;;;;4990497;28;20457;-71
2022/02/03 07:40:17;;;;;;;3.80;2.73;;;8.30;99.90;;;;;;4971560;28;20762;-72
2022/02/03 07:42:48;;;;;;;3.17;2.47;;;8.30;99.90;;;;;;4961637;28;20474;-72
2022/02/03 07:45:16;;;;;;;3.87;2.40;;;8.30;99.90;;;;;;4960633;28;20477;-72
2022/02/03 07:47:46;;;;;;;3.20;2.43;;;8.30;99.90;;;;;;5001505;28;20456;-73
2022/02/03 07:50:12;;;;;;;4.43;2.80;;;8.30;99.90;;;;;;5009866;28;20476;-72
2022/02/03 07:52:38;;;;;;;4.20;2.97;;;8.30;99.90;;;;;;4988767;28;20472;-72
2022/02/03 07:55:06;;;;;;;5.03;3.17;;;8.30;99.90;;;;;;4989626;28;20457;-71
2022/02/03 07:57:32;;;;;;;4.90;3.00;;;8.30;99.90;;;;;;4986114;28;20224;-73
2022/02/03 07:59:58;;;;;;;3.37;2.60;;;8.30;99.90;;;;;;5001921;28;20467;-71
2022/02/03 08:02:24;;;;;;;4.30;3.03;;;8.30;99.90;;;;;;4995016;28;20869;-72
2022/02/03 08:04:51;;;;;;;3.47;2.67;;;8.30;99.90;;;;;;4983867;28;20321;-71
2022/02/03 08:07:19;;;;;;;4.67;2.37;;;8.30;99.90;;;;;;4969816;28;20225;-73
2022/02/03 08:09:59;;;;;;;4.30;3.50;;;8.30;99.90;;;;;;4986730;28;20461;-72
2022/02/03 08:12:30;;;;;;;3.20;2.63;;;8.30;99.90;;;;;;4997722;28;20503;-71
2022/02/03 08:14:57;;;;;;;5.13;2.93;;;8.30;99.90;;;;;;4961815;28;20476;-72
2022/02/03 08:17:37;;;;;;;4.50;2.50;;;8.30;99.90;;;;;;4960920;28;20509;-72
2022/02/03 08:20:09;;;;;;;2.80;2.50;;;8.30;99.90;;;;;;4982612;28;20469;-72
2022/02/03 08:22:38;;;;;;;5.50;2.90;;;8.30;99.90;;;;;;4985238;28;20461;-71
2022/02/03 08:28:34;;;;;;;2.63;2.13;;;8.30;99.90;;;;;;4954456;28;20469;-70
2022/02/03 08:31:02;;;;;;;2.50;2.20;;;8.40;99.90;;;;;;4981714;28;20886;-70
2022/02/03 08:33:30;;;;;;;4.80;2.70;;;8.40;99.90;;;;;;4983074;28;20457;-71
2022/02/03 08:35:58;;;;;;;3.70;2.90;;;8.40;99.90;;;;;;4986115;28;20463;-71
2022/02/03 08:41:07;;;;;;;3.30;2.33;;;8.40;99.90;;;;;;4984563;28;20470;-71
2022/02/03 08:43:35;;;;;;;2.77;2.57;;;8.40;99.90;;;;;;4982957;28;20445;-71
2022/02/03 08:46:05;;;;;;;3.70;2.57;;;8.40;99.90;;;;;;4982418;28;20229;-72
2022/02/03 08:48:31;;;;;;;2.70;2.40;;;8.40;99.90;;;;;;4987932;28;20470;-72
2022/02/03 08:50:57;;;;;;;3.93;2.47;;;8.40;99.90;;;;;;4983197;28;20535;-71
2022/02/03 08:53:31;;;;;;;26.50;12.30;;;8.50;99.90;;;;;;4986614;28;20463;-72
2022/02/03 09:34:43;;;;;;;17.80;10.40;;;8.60;99.90;;;;;;4975724;28;20491;-73
2022/02/03 09:39:21;;;;;;;9.03;6.13;;;8.60;99.90;;;;;;4991898;28;20442;-72
2022/02/03 09:58:18;;;;;;;53.60;29.23;;;8.70;99.90;;;;;;4987644;28;20463;-71
2022/02/03 10:03:35;;;;;;;57.67;26.83;;;8.70;99.90;;;;;;4979933;28;20458;-70
2022/02/03 10:06:08;;;;;;;49.43;25.63;;;8.70;99.90;;;;;;4985707;28;20463;-72
2022/02/03 10:08:34;;;;;;;34.00;19.90;;;8.70;99.90;;;;;;4990784;28;20496;-73
2022/02/03 10:11:19;;;;;;;27.70;16.60;;;8.70;99.90;;;;;;4988147;28;20457;-71
2022/02/03 10:13:51;;;;;;;13.27;10.47;;;8.70;99.90;;;;;;4964559;28;20465;-72
2022/02/03 10:16:19;;;;;;;7.70;5.30;;;8.70;99.90;;;;;;4985111;28;20553;-71
2022/02/03 10:18:46;;;;;;;6.00;3.27;;;8.70;99.90;;;;;;4998605;28;20483;-72
2022/02/03 10:21:16;;;;;;;3.00;2.40;;;8.80;99.90;;;;;;4988203;28;20993;-71
2022/02/03 10:24:00;;;;;;;3.20;2.67;;;8.80;99.90;;;;;;4966379;28;20541;-73
2022/02/03 10:26:48;;;;;;;2.13;1.60;;;8.80;99.90;;;;;;4984974;28;20508;-72
2022/02/03 10:29:19;;;;;;;1.60;1.50;;;8.80;99.90;;;;;;4999030;28;20471;-73
2022/02/03 10:31:45;;;;;;;10.00;5.70;;;8.80;99.90;;;;;;4988495;28;20512;-72
2022/02/03 10:34:16;;;;;;;13.53;8.03;;;8.80;99.90;;;;;;4977688;28;20886;-70
2022/02/03 10:36:48;;;;;;;10.67;7.47;;;8.80;99.90;;;;;;4967917;28;20473;-73
2022/02/03 10:40:01;;;;;;;9.83;8.17;;;8.80;99.90;;;;;;4992036;28;20468;-72
2022/02/03 10:42:27;;;;;;;5.53;5.03;;;8.80;99.90;;;;;;4991060;28;20455;-72
2022/02/03 10:50:57;;;;;;;2.97;2.17;;;8.80;99.90;;;;;;4979347;28;20513;-73
2022/02/03 10:54:07;;;;;;;1.63;1.33;;;8.80;99.90;;;;;;4981453;28;20461;-72
2022/02/03 10:56:53;;;;;;;2.30;1.73;;;8.80;99.90;;;;;;4988085;28;20990;-72
2022/02/03 11:02:06;;;;;;;4.50;2.53;;;8.80;99.90;;;;;;4983502;28;20508;-70
2022/02/03 11:07:47;;;;;;;;;;;;;;;;;;;;;
2022/02/03 11:12:36;;;;;;;2.20;1.50;;;8.80;99.90;;;;;;4975313;28;20473;-71
2022/02/03 11:15:02;;;;;;;3.90;2.00;;;8.80;99.90;;;;;;4984881;28;20449;-73
2022/02/03 11:17:29;;;;;;;3.47;2.10;;;8.80;99.90;;;;;;4989539;28;20841;-73
2022/02/03 11:19:58;;;;;;;2.93;2.00;;;8.80;99.90;;;;;;4969850;28;20462;-71
2022/02/03 11:22:32;;;;;;;2.40;2.03;;;8.80;99.90;;;;;;4989553;28;20532;-71
2022/02/03 11:25:55;;;;;;;2.30;1.67;;;8.80;99.90;;;;;;4986927;28;20449;-72
2022/02/03 11:28:25;;;;;;;1.40;1.23;;;8.80;99.90;;;;;;5002541;28;20506;-71
2022/02/03 11:39:15;;;;;;;2.00;1.90;;;8.80;99.90;;;;;;4978329;28;20967;-73
2022/02/03 11:58:04;;;;;;;;;;;;;;;;;;;;;
2022/02/03 12:03:13;;;;;;;33.97;17.63;;;8.90;99.90;;;;;;4993070;28;20473;-72
2022/02/03 12:06:22;;;;;;;43.77;23.30;;;8.90;99.90;;;;;;4989058;28;20461;-72
2022/02/03 12:19:35;;;;;;;25.37;16.20;;;9.00;99.90;;;;;;4976662;28;20454;-70
2022/02/03 12:22:15;;;;;;;15.13;10.20;;;9.00;99.90;;;;;;4981697;28;20460;-70
2022/02/03 12:25:28;;;;;;;6.93;4.47;;;9.00;99.90;;;;;;4991959;28;20445;-70
2022/02/03 12:39:05;;;;;;;3.47;2.80;;;9.00;99.90;;;;;;4992842;28;20228;-71
2022/02/03 12:42:03;;;;;;;2.33;1.73;;;9.00;99.90;;;;;;4970111;28;20455;-70
2022/02/03 12:44:25;;;;;;;2.90;2.10;;;9.10;99.90;;;;;;4985416;28;20445;-71
2022/02/03 12:46:51;;;;;;;3.03;2.20;;;9.10;99.90;;;;;;4989803;28;20993;-69
2022/02/03 12:49:20;;;;;;;2.37;2.00;;;9.10;99.90;;;;;;4988939;28;20483;-70
2022/02/03 12:51:49;;;;;;;3.37;1.90;;;9.00;99.90;;;;;;4971489;28;20449;-70
2022/02/03 12:54:16;;;;;;;8.30;2.37;;;9.00;99.90;;;;;;4989120;28;20810;-70
2022/02/03 12:56:42;;;;;;;1.90;1.67;;;9.00;99.90;;;;;;4990047;28;20554;-70
2022/02/03 12:59:13;;;;;;;1.80;1.70;;;9.00;99.90;;;;;;4983209;28;20474;-71
2022/02/03 13:01:41;;;;;;;2.30;2.10;;;9.00;99.90;;;;;;5004451;28;20465;-70
2022/02/03 13:04:12;;;;;;;4.27;3.47;;;9.00;99.90;;;;;;4989699;28;20466;-70
2022/02/03 13:06:42;;;;;;;7.20;4.97;;;9.10;99.90;;;;;;4970270;28;20469;-71
2022/02/03 13:09:10;;;;;;;7.07;5.00;;;9.10;99.90;;;;;;4979429;28;20485;-69
2022/02/03 13:14:17;;;;;;;4.93;3.83;;;9.10;99.90;;;;;;4990580;28;20461;-69
2022/02/03 13:16:53;;;;;;;3.00;2.60;;;9.00;99.90;;;;;;4988285;28;20449;-70
2022/02/03 13:19:31;;;;;;;2.50;2.03;;;9.00;99.90;;;;;;4988729;28;20540;-70
2022/02/03 13:27:17;;;;;;;4.00;2.40;;;9.10;99.90;;;;;;4985623;28;20503;-68
2022/02/03 13:30:09;;;;;;;3.67;2.80;;;9.00;99.90;;;;;;4986206;28;20480;-71
2022/02/03 13:32:40;;;;;;;5.30;4.13;;;9.00;99.90;;;;;;5001182;28;20463;-69
2022/02/03 13:35:22;;;;;;;7.20;4.77;;;9.00;99.90;;;;;;5003230;28;20994;-71
2022/02/03 13:37:56;;;;;;;5.53;3.63;;;8.90;99.90;;;;;;4986377;28;21035;-69
2022/02/03 13:40:23;;;;;;;9.00;4.70;;;8.90;99.90;;;;;;4993739;28;20552;-70
2022/02/03 13:43:10;;;;;;;6.37;4.80;;;8.80;99.90;;;;;;4988104;28;20497;-68
2022/02/03 13:45:40;;;;;;;6.63;4.00;;;8.80;99.90;;;;;;4991377;28;20464;-70
2022/02/03 13:48:20;;;;;;;7.33;4.93;;;8.80;99.90;;;;;;4987708;28;20476;-69
2022/02/03 13:50:56;;;;;;;6.20;4.43;;;8.80;99.90;;;;;;4974430;28;20432;-70
2022/02/03 13:53:38;;;;;;;12.87;8.43;;;8.70;99.90;;;;;;4989171;28;20458;-70
2022/02/03 14:18:48;;;;;;;;;;;;;;;;;;;;;
2022/02/03 14:21:04;;;;;;;10.13;5.77;;;8.60;99.90;;;;;;4977765;28;20469;-71
2022/02/03 14:26:52;;;;;;;;;;;;;;;;;;;;;
2022/02/03 14:28:41;;;;;;;3.37;2.73;;;8.60;99.90;;;;;;4999473;28;20466;-71
2022/02/03 14:31:08;;;;;;;4.27;2.90;;;8.50;99.90;;;;;;4984741;28;20458;-69
2022/02/03 14:33:38;;;;;;;6.47;3.10;;;8.50;99.90;;;;;;4969289;28;20461;-70
2022/02/03 14:36:09;;;;;;;2.30;2.10;;;8.50;99.90;;;;;;4986577;28;20457;-71
2022/02/03 14:38:48;;;;;;;2.43;2.10;;;8.40;99.90;;;;;;4989731;28;20476;-69
2022/02/03 14:41:36;;;;;;;2.23;2.03;;;8.40;99.90;;;;;;4977464;28;20481;-70
2022/02/03 14:44:02;;;;;;;2.30;2.03;;;8.40;99.90;;;;;;4977689;28;20476;-71
2022/02/03 14:46:28;;;;;;;4.90;1.90;;;8.40;99.90;;;;;;4978737;28;20473;-70
2022/02/03 14:48:54;;;;;;;1.90;1.80;;;8.40;99.90;;;;;;4989944;28;20639;-69
2022/02/03 14:51:28;;;;;;;1.83;1.67;;;8.40;99.90;;;;;;4986074;28;20665;-70
2022/02/03 14:59:13;;;;;;;1.87;1.67;;;8.30;99.90;;;;;;4982300;28;20552;-70
2022/02/03 15:01:39;;;;;;;1.60;1.50;;;8.20;99.90;;;;;;4985455;28;20548;-69
2022/02/03 15:04:09;;;;;;;1.60;1.50;;;8.20;99.90;;;;;;4987214;28;20225;-70
2022/02/03 15:06:39;;;;;;;1.50;1.40;;;8.20;99.90;;;;;;4970239;28;20540;-69
2022/02/03 15:14:15;;;;;;;1.27;1.20;;;8.20;99.90;;;;;;4985142;28;20456;-70
2022/02/03 15:16:41;;;;;;;2.40;1.30;;;8.20;99.90;;;;;;4985097;28;20460;-70
2022/02/03 15:19:06;;;;;;;1.50;1.40;;;8.20;99.90;;;;;;4981976;28;20327;-69
2022/02/03 15:21:32;;;;;;;4.10;1.47;;;8.20;99.90;;;;;;4967406;28;20229;-71
2022/02/03 15:23:59;;;;;;;2.93;1.50;;;8.20;99.90;;;;;;4985342;28;20232;-70
2022/02/03 15:26:25;;;;;;;1.87;1.77;;;8.10;99.90;;;;;;4969064;28;20503;-70
2022/02/03 15:28:51;;;;;;;2.83;1.80;;;8.10;99.90;;;;;;4970284;28;21030;-70
2022/02/03 15:31:16;;;;;;;2.07;1.43;;;8.10;99.90;;;;;;4963824;28;20571;-69
2022/02/03 15:33:49;;;;;;;2.23;1.90;;;8.10;99.90;;;;;;4992320;28;20553;-70
2022/02/03 15:36:16;;;;;;;2.00;1.40;;;8.10;99.90;;;;;;4985261;28;20696;-69
2022/02/03 15:38:47;;;;;;;1.70;1.43;;;8.20;99.90;;;;;;4978291;28;20462;-71
2022/02/03 15:41:21;;;;;;;2.10;1.33;;;8.20;99.90;;;;;;4980153;28;20454;-70
2022/02/03 15:43:49;;;;;;;6.57;4.70;;;8.20;99.90;;;;;;4989848;28;20881;-70
2022/02/03 15:46:17;;;;;;;7.87;6.60;;;8.20;99.90;;;;;;4987514;28;20454;-70
2022/02/03 16:17:52;;;;;;;12.17;9.00;;;8.20;99.90;;;;;;4984914;28;20536;-70
2022/02/03 16:20:43;;;;;;;6.10;4.83;;;8.20;99.90;;;;;;4976959;28;20833;-69
2022/02/03 16:52:49;;;;;;;1.70;1.60;;;8.30;99.90;;;;;;4983829;28;20880;-71
2022/02/03 16:55:19;;;;;;;2.47;2.00;;;8.30;99.90;;;;;;4961868;28;20461;-70
2022/02/03 16:57:47;;;;;;;5.33;2.67;;;8.30;99.90;;;;;;4973110;28;20829;-69
2022/02/03 17:00:16;;;;;;;2.63;2.27;;;8.30;99.90;;;;;;4985748;28;20461;-71
2022/02/03 17:02:41;;;;;;;2.20;2.00;;;8.30;99.90;;;;;;4988037;28;20465;-70
2022/02/03 17:05:08;;;;;;;2.83;2.17;;;8.20;99.90;;;;;;4985200;28;21005;-70
2022/02/03 17:07:34;;;;;;;3.10;2.30;;;8.30;99.90;;;;;;4978112;28;20222;-69
2022/02/03 17:10:00;;;;;;;6.70;3.03;;;8.30;99.90;;;;;;4987721;28;21148;-70
2022/02/03 17:12:26;;;;;;;3.20;2.30;;;8.30;99.90;;;;;;4957133;28;20558;-70
2022/02/03 17:14:52;;;;;;;2.30;2.10;;;8.30;99.90;;;;;;4990151;28;20369;-70
2022/02/03 17:17:20;;;;;;;2.80;2.00;;;8.30;99.90;;;;;;4998830;28;20465;-69
2022/02/03 17:19:47;;;;;;;4.13;2.50;;;8.30;99.90;;;;;;5012508;28;20456;-69
2022/02/03 17:22:15;;;;;;;3.53;2.40;;;8.30;99.90;;;;;;5012321;28;20477;-70
2022/02/03 17:24:48;;;;;;;3.10;2.17;;;8.20;99.90;;;;;;5001294;28;20456;-70
2022/02/03 17:27:28;;;;;;;7.50;2.57;;;8.20;99.90;;;;;;5003142;28;20456;-71
2022/02/03 17:45:03;;;;;;;2.90;2.30;;;8.20;99.90;;;;;;4989455;28;20453;-69
2022/02/03 18:11:07;;;;;;;5.03;3.40;;;8.00;99.90;;;;;;4980436;28;20472;-69
2022/02/03 18:28:30;;;;;;;51.57;23.90;;;7.90;99.90;;;;;;4979018;28;20446;-70
2022/02/03 18:32:57;;;;;;;62.53;29.07;;;7.90;99.90;;;;;;4989779;28;20465;-70
2022/02/03 18:51:23;;;;;;;7.67;6.20;;;8.00;99.90;;;;;;4980783;28;20453;-69
2022/02/03 18:59:20;;;;;;;;;;;;;;;;;;;;;
2022/02/03 20:09:13;;;;;;;;;;;;;;;;;;;;;
2022/02/03 20:11:28;;;;;;;6.77;4.47;;;7.50;99.90;;;;;;4972835;28;20521;-71
2022/02/03 20:13:53;;;;;;;6.23;4.40;;;7.50;99.90;;;;;;4981524;28;20226;-71
2022/02/03 20:16:22;;;;;;;23.87;12.40;;;7.50;99.90;;;;;;4989084;28;20507;-71
2022/02/03 20:18:48;;;;;;;12.93;7.90;;;7.40;99.90;;;;;;4963478;28;20225;-71
2022/02/03 20:21:14;;;;;;;10.73;7.90;;;7.40;99.90;;;;;;4985240;28;20487;-71
2022/02/03 20:23:43;;;;;;;11.40;7.27;;;7.40;99.90;;;;;;4988024;28;20495;-71
2022/02/03 20:26:11;;;;;;;10.97;6.57;;;7.40;99.90;;;;;;4986797;28;20446;-72
2022/02/03 20:28:37;;;;;;;8.10;5.10;;;7.40;99.90;;;;;;4953039;28;20516;-71
2022/02/03 20:31:03;;;;;;;7.80;5.03;;;7.40;99.90;;;;;;4979866;28;20520;-70
2022/02/03 20:33:29;;;;;;;7.10;4.30;;;7.40;99.90;;;;;;4974109;28;20523;-71
2022/02/03 20:35:56;;;;;;;7.57;5.03;;;7.40;99.90;;;;;;4990671;28;20482;-72
2022/02/03 20:38:22;;;;;;;10.10;4.80;;;7.40;99.90;;;;;;4992729;28;20303;-71
2022/02/03 20:40:48;;;;;;;5.70;5.00;;;7.40;99.90;;;;;;4986315;28;20979;-71
2022/02/03 20:43:14;;;;;;;9.47;5.10;;;7.40;99.90;;;;;;4984580;28;20712;-71
2022/02/03 20:45:42;;;;;;;9.17;5.17;;;7.40;99.90;;;;;;4971784;28;20457;-71
2022/02/03 20:48:07;;;;;;;9.20;5.20;;;7.40;99.90;;;;;;4992862;28;20449;-72
2022/02/03 20:50:37;;;;;;;6.60;4.57;;;7.40;99.90;;;;;;4977480;28;21007;-71
2022/02/03 20:53:04;;;;;;;6.53;4.60;;;7.40;99.90;;;;;;4981234;28;20473;-71
2022/02/03 20:55:30;;;;;;;8.50;5.70;;;7.40;99.90;;;;;;4995855;28;20461;-71
2022/02/03 20:57:56;;;;;;;9.93;5.40;;;7.40;99.90;;;;;;4986987;28;20464;-72
2022/02/03 21:00:25;;;;;;;8.00;5.00;;;7.40;99.90;;;;;;4984019;28;20476;-72
2022/02/03 21:03:00;;;;;;;8.27;5.50;;;7.40;99.90;;;;;;4986807;28;20326;-71
2022/02/03 21:05:27;;;;;;;6.40;4.57;;;7.40;99.90;;;;;;4980085;28;20464;-72
2022/02/03 21:07:53;;;;;;;14.87;4.80;;;7.40;99.90;;;;;;4987490;28;20449;-71
2022/02/03 21:10:24;;;;;;;6.97;5.23;;;7.40;99.90;;;;;;4984658;28;20472;-71
2022/02/03 21:12:50;;;;;;;8.60;5.03;;;7.40;99.90;;;;;;4980752;28;20300;-72
2022/02/03 21:15:37;;;;;;;7.73;5.10;;;7.40;99.90;;;;;;4988549;28;20541;-72
2022/02/03 21:18:11;;;;;;;9.40;5.57;;;7.40;99.90;;;;;;4984202;28;20548;-71
2022/02/03 21:20:39;;;;;;;9.47;5.60;;;7.40;99.90;;;;;;4978747;28;20458;-71
2022/02/03 21:23:05;;;;;;;6.47;4.70;;;7.30;99.90;;;;;;5004277;28;20467;-71
2022/02/03 21:28:05;;;;;;;6.87;5.17;;;7.30;99.90;;;;;;4989589;28;20453;-71
2022/02/03 21:30:31;;;;;;;9.63;5.03;;;7.30;99.90;;;;;;4979014;28;20226;-71
2022/02/03 21:32:56;;;;;;;10.30;5.30;;;7.30;99.90;;;;;;4982957;28;20460;-68
2022/02/03 21:35:23;;;;;;;5.50;4.60;;;7.30;99.90;;;;;;4991750;28;20503;-68
2022/02/03 21:37:49;;;;;;;6.33;5.10;;;7.30;99.90;;;;;;4991996;28;20217;-68
2022/02/03 21:40:16;;;;;;;8.70;5.57;;;7.30;99.90;;;;;;4987919;28;20462;-69
2022/02/03 21:42:42;;;;;;;6.97;4.60;;;7.30;99.90;;;;;;4984269;28;20449;-69
2022/02/03 21:45:09;;;;;;;10.97;5.87;;;7.20;99.90;;;;;;4974018;28;20912;-69
2022/02/03 21:47:35;;;;;;;13.93;6.00;;;7.30;99.90;;;;;;4967469;28;20272;-69
2022/02/03 21:50:06;;;;;;;8.13;4.80;;;7.30;99.90;;;;;;4975611;28;20898;-69
2022/02/03 21:52:38;;;;;;;9.27;7.00;;;7.20;99.90;;;;;;4983464;28;20478;-68
2022/02/03 21:55:06;;;;;;;12.10;6.60;;;7.20;99.90;;;;;;4971230;28;20548;-68
2022/02/03 21:57:31;;;;;;;14.47;7.93;;;7.20;99.90;;;;;;4990840;28;20484;-70
2022/02/03 21:59:57;;;;;;;13.27;6.77;;;7.20;99.90;;;;;;4995916;28;20445;-69
2022/02/03 22:02:24;;;;;;;11.60;5.80;;;7.20;99.90;;;;;;4968974;28;20775;-69
2022/02/03 22:04:50;;;;;;;31.67;14.13;;;7.20;99.90;;;;;;4984798;28;20229;-70
2022/02/03 22:07:15;;;;;;;26.70;13.80;;;7.10;99.90;;;;;;4988409;28;20845;-70
2022/02/03 22:09:41;;;;;;;24.50;13.10;;;7.20;99.90;;;;;;4984556;28;20663;-69
2022/02/03 22:12:08;;;;;;;14.17;9.10;;;7.10;99.90;;;;;;4974945;28;20289;-70
2022/02/03 22:14:34;;;;;;;26.20;13.43;;;7.10;99.90;;;;;;4974899;28;20222;-70
2022/02/03 22:17:01;;;;;;;17.20;9.40;;;7.10;99.90;;;;;;4974448;28;20985;-68
2022/02/03 22:19:29;;;;;;;14.40;8.00;;;7.10;99.90;;;;;;4974272;28;20453;-69
2022/02/03 22:22:22;;;;;;;;;;;;;;;;;;;;;
2022/02/03 22:25:13;;;;;;;11.07;6.83;;;7.00;99.90;;;;;;4985005;28;20481;-72
2022/02/03 22:28:05;;;;;;;20.60;11.50;;;6.90;99.90;;;;;;4983080;28;20454;-72
2022/02/03 22:43:51;;;;;;;69.83;25.57;;;6.90;99.90;;;;;;4982419;28;20225;-72
2022/02/03 22:47:05;;;;;;;96.33;34.60;;;6.90;99.90;;;;;;4994558;28;20477;-72
2022/02/03 22:49:10;;;;;;;136.80;40.83;;;6.90;99.90;;;;;;4981333;28;20569;-71
2022/02/03 22:51:38;;;;;;;74.43;25.43;;;6.90;99.90;;;;;;4982193;28;20460;-71
2022/02/03 22:54:06;;;;;;;61.27;22.30;;;6.80;99.90;;;;;;4986911;28;20534;-72
2022/02/03 22:56:32;;;;;;;82.37;27.30;;;6.80;99.90;;;;;;4981050;28;20454;-72
2022/02/03 23:01:42;;;;;;;92.77;33.67;;;6.80;99.90;;;;;;4986050;28;20515;-71
2022/02/03 23:04:09;;;;;;;97.07;35.03;;;6.80;99.90;;;;;;4990239;28;20476;-71
2022/02/03 23:06:35;;;;;;;138.00;46.27;;;6.80;99.90;;;;;;4993444;28;20593;-72
2022/02/03 23:11:40;;;;;;;133.50;47.30;;;6.80;99.90;;;;;;5000465;28;20256;-71
2022/02/03 23:14:20;;;;;;;56.03;30.30;;;6.80;99.90;;;;;;5009738;28;20225;-72
2022/02/03 23:17:04;;;;;;;;;;;;;;;;;;;;;
2022/02/03 23:21:51;;;;;;;;;;;;;;;;;;;;;
2022/02/03 23:24:11;;;;;;;12.23;6.00;;;6.70;99.90;;;;;;4986482;28;20466;-71
2022/02/03 23:26:37;;;;;;;7.80;4.80;;;6.70;99.90;;;;;;4993207;28;20456;-72
2022/02/03 23:29:14;;;;;;;8.40;4.50;;;6.70;99.90;;;;;;4997869;28;20220;-71
2022/02/03 23:31:50;;;;;;;3.80;3.23;;;6.70;99.90;;;;;;4987104;28;20460;-72
2022/02/03 23:34:16;;;;;;;6.87;4.60;;;6.70;99.90;;;;;;4973935;28;20515;-71
2022/02/03 23:36:41;;;;;;;8.33;4.77;;;6.70;99.90;;;;;;4973544;28;20970;-72
2022/02/03 23:39:18;;;;;;;6.10;3.80;;;6.70;99.90;;;;;;4989936;28;20241;-71
